Time;durP1;ratioP1;P1;durP2;ratioP2;P2;SDS_P1;SDS_P2;PMS_P1;PMS_P2;Temp;Humidity;BMP_temperature;BMP_pressure;BME280_temperature;BME280_humidity;BME280_pressure;Samples;Min_cycle;Max_cycle;Signal;HPM_P1;HPM_P2
2023/10/17 00:00:27;;;;;;;8.90;3.85;;;;;;;5.58;100.00;101436.31;4999077;28;20053;-53
2023/10/17 00:03:21;;;;;;;5.57;3.75;;;;;;;5.61;100.00;101433.63;4997777;28;20052;-53
2023/10/17 00:05:48;;;;;;;6.72;3.67;;;;;;;5.62;100.00;101434.50;5001420;28;20058;-57
2023/10/17 00:08:15;;;;;;;9.30;3.95;;;;;;;5.64;100.00;101435.31;5004212;28;20046;-51
2023/10/17 00:10:45;;;;;;;8.38;4.05;;;;;;;5.66;100.00;101431.75;5003317;28;20161;-54
2023/10/17 00:15:52;;;;;;;7.43;3.67;;;;;;;5.73;100.00;101430.72;4981906;28;20058;-52
2023/10/17 00:18:25;;;;;;;7.13;3.20;;;;;;;5.75;100.00;101423.69;5003006;28;20038;-56
2023/10/17 00:20:55;;;;;;;5.40;3.78;;;;;;;5.76;100.00;101419.31;5005833;28;20112;-54
2023/10/17 00:23:22;;;;;;;9.23;3.50;;;;;;;5.78;100.00;101427.97;5005240;28;20052;-57
2023/10/17 00:25:50;;;;;;;6.70;3.78;;;;;;;5.79;100.00;101434.91;5003137;28;20157;-53
2023/10/17 00:28:22;;;;;;;7.25;3.70;;;;;;;5.81;100.00;101433.13;5002722;28;20050;-57
2023/10/17 00:30:56;;;;;;;6.00;3.75;;;;;;;5.83;100.00;101426.09;5003498;28;20494;-57
2023/10/17 00:33:26;;;;;;;8.73;4.07;;;;;;;5.85;100.00;101426.91;5010783;28;20133;-58
2023/10/17 00:35:54;;;;;;;6.30;3.72;;;;;;;5.87;100.00;101425.13;4988829;28;20054;-55
2023/10/17 00:38:22;;;;;;;7.22;3.67;;;;;;;5.90;100.00;101424.16;5005720;28;20500;-57
2023/10/17 00:40:51;;;;;;;5.05;3.50;;;;;;;5.92;100.00;101428.50;5009899;28;20058;-53
2023/10/17 00:43:20;;;;;;;7.85;3.53;;;;;;;5.93;100.00;101424.13;5004606;28;20069;-53
2023/10/17 00:45:47;;;;;;;5.45;3.50;;;;;;;5.95;100.00;101430.19;5004896;28;20710;-56
2023/10/17 00:48:22;;;;;;;8.63;4.22;;;;;;;5.97;100.00;101429.22;4988495;28;20054;-59
2023/10/17 00:50:56;;;;;;;6.13;3.85;;;;;;;5.99;100.00;101423.94;5007084;28;20053;-56
2023/10/17 00:53:24;;;;;;;9.95;4.18;;;;;;;6.00;100.00;101425.69;4988151;28;20058;-54
2023/10/17 00:55:57;;;;;;;7.40;3.95;;;;;;;6.02;100.00;101429.97;5004210;28;20065;-55
2023/10/17 00:58:24;;;;;;;5.55;3.63;;;;;;;6.02;100.00;101424.72;5002981;28;20145;-56
2023/10/17 01:00:59;;;;;;;8.13;4.05;;;;;;;6.03;100.00;101416.00;5007267;28;20116;-54
2023/10/17 01:03:29;;;;;;;7.43;4.50;;;;;;;6.08;100.00;101419.34;4990917;28;20052;-54
2023/10/17 01:08:51;;;;;;;6.40;3.50;;;;;;;6.14;100.00;101420.09;4984455;28;20089;-54
2023/10/17 01:11:21;;;;;;;5.38;3.55;;;;;;;6.15;100.00;101424.41;5003739;28;20686;-56
2023/10/17 01:13:52;;;;;;;11.27;4.45;;;;;;;6.14;100.00;101415.72;4989314;28;20172;-58
2023/10/17 01:16:21;;;;;;;8.60;4.60;;;;;;;6.16;100.00;101413.91;5009466;28;20469;-54
2023/10/17 01:18:48;;;;;;;13.10;5.20;;;;;;;6.18;100.00;101419.09;4985224;28;20050;-57
2023/10/17 01:21:20;;;;;;;6.63;3.70;;;;;;;6.22;100.00;101418.13;5007395;28;20077;-54
2023/10/17 01:23:53;;;;;;;7.22;4.03;;;;;;;6.22;100.00;101418.97;5008575;28;20528;-58
2023/10/17 01:26:21;;;;;;;7.20;3.97;;;;;;;6.23;100.00;101411.97;5005688;28;20046;-56
2023/10/17 01:31:48;;;;;;;7.50;4.45;;;;;;;6.22;100.00;101405.03;5003897;28;20038;-54
2023/10/17 01:34:19;;;;;;;10.80;4.43;;;;;;;6.25;100.00;101413.63;5005901;28;20096;-56
2023/10/17 01:36:57;;;;;;;7.85;4.20;;;;;;;6.25;100.00;101402.31;5008712;28;20053;-57
2023/10/17 01:39:26;;;;;;;10.05;4.63;;;;;;;6.21;100.00;101413.75;5008560;28;20104;-57
2023/10/17 01:41:54;;;;;;;8.23;4.22;;;;;;;6.20;100.00;101407.69;5007058;28;20523;-56
2023/10/17 01:45:11;;;;;;;7.90;4.55;;;;;;;6.23;100.00;101404.13;5004801;28;20515;-53
2023/10/17 01:48:13;;;;;;;10.50;4.80;;;;;;;6.26;100.00;101401.41;5007344;28;20535;-56
2023/10/17 01:51:06;;;;;;;8.13;4.18;;;;;;;6.28;100.00;101405.72;5007725;28;20060;-57
2023/10/17 01:53:34;;;;;;;6.88;4.35;;;;;;;6.28;100.00;101407.47;5006391;28;20053;-55
2023/10/17 01:56:14;;;;;;;12.05;5.28;;;;;;;6.25;100.00;101402.31;5005653;28;20109;-54
2023/10/17 01:58:48;;;;;;;7.60;4.35;;;;;;;6.25;100.00;101408.41;5007629;28;20495;-55
2023/10/17 02:01:24;;;;;;;7.88;4.68;;;;;;;6.28;100.00;101405.72;5007261;28;20046;-57
2023/10/17 02:03:53;;;;;;;9.50;5.43;;;;;;;6.26;100.00;101402.31;5002426;28;20065;-55
2023/10/17 02:12:05;;;;;;;9.77;5.50;;;;;;;6.29;100.00;101402.19;5006039;28;20050;-51
2023/10/17 02:18:17;;;;;;;9.38;5.40;;;;;;;6.28;100.00;101397.88;5008218;28;20495;-54
2023/10/17 02:20:51;;;;;;;10.50;6.55;;;;;;;6.30;100.00;101392.59;5007028;28;20736;-58
2023/10/17 02:23:25;;;;;;;;;;;;;;;6.34;100.00;101396.81;5009824;28;20050;-54
2023/10/17 02:26:00;;;;;;;8.55;5.53;;;;;;;6.36;100.00;101402.03;5002007;28;20024;-54
2023/10/17 02:40:54;;;;;;;8.93;5.90;;;;;;;6.33;100.00;101403.81;5002596;28;20176;-56
2023/10/17 02:43:21;;;;;;;10.32;6.57;;;;;;;6.36;100.00;101405.50;5008407;28;20085;-55
2023/10/17 02:49:09;;;;;;;9.07;6.30;;;;;;;6.41;100.00;101410.59;5006527;28;20537;-52
2023/10/17 02:51:37;;;;;;;11.50;6.25;;;;;;;6.40;100.00;101421.97;5006384;28;20115;-58
2023/10/17 02:57:07;;;;;;;9.45;6.15;;;;;;;6.40;100.00;101406.28;5007571;28;20048;-57
2023/10/17 03:00:33;;;;;;;12.25;6.40;;;;;;;6.45;100.00;101407.84;5006300;28;20049;-52
2023/10/17 03:03:12;;;;;;;12.20;6.10;;;;;;;6.48;100.00;101410.34;5003238;28;20066;-56
2023/10/17 03:05:45;;;;;;;18.67;6.95;;;;;;;6.47;100.00;101406.03;5005986;28;20133;-57
2023/10/17 03:08:17;;;;;;;12.63;6.40;;;;;;;6.40;100.00;101401.91;5008413;28;20048;-53
2023/10/17 03:10:45;;;;;;;13.15;5.88;;;;;;;6.42;100.00;101409.69;5000945;28;20046;-50
2023/10/17 03:13:23;;;;;;;9.65;5.78;;;;;;;6.45;100.00;101407.00;5007510;28;20543;-55
2023/10/17 03:15:57;;;;;;;12.70;5.88;;;;;;;6.46;100.00;101400.84;5001245;28;20333;-57
2023/10/17 03:19:15;;;;;;;9.25;5.55;;;;;;;6.45;100.00;101409.59;5005366;28;20523;-56
2023/10/17 03:22:27;;;;;;;10.45;6.55;;;;;;;6.46;100.00;101401.72;4987910;28;20096;-53
2023/10/17 03:27:55;;;;;;;9.88;5.75;;;;;;;6.45;100.00;101405.22;5004731;28;20702;-54
2023/10/17 03:30:51;;;;;;;8.23;5.47;;;;;;;6.45;100.00;101402.63;4993691;28;20096;-62
2023/10/17 03:33:26;;;;;;;10.52;5.72;;;;;;;6.46;100.00;101409.56;5007268;28;20053;-55
2023/10/17 03:38:31;;;;;;;11.15;6.20;;;;;;;6.45;100.00;101400.00;5007064;28;20120;-56
2023/10/17 03:41:04;;;;;;;9.07;5.75;;;;;;;6.48;100.00;101401.66;5004191;28;20065;-52
2023/10/17 03:43:38;;;;;;;10.55;5.10;;;;;;;6.47;100.00;101407.78;5005125;28;20050;-52
2023/10/17 03:46:59;;;;;;;9.13;4.75;;;;;;;6.46;100.00;101399.09;5004311;28;20069;-55
2023/10/17 03:49:56;;;;;;;10.88;5.25;;;;;;;6.48;100.00;101401.66;5005387;28;20107;-61
2023/10/17 03:58:43;;;;;;;;;;;;;;;6.46;100.00;101404.31;5009692;28;20073;-56
2023/10/17 04:02:06;;;;;;;10.85;5.00;;;;;;;6.45;100.00;101399.16;5002187;28;19936;-53
2023/10/17 04:05:06;;;;;;;10.73;6.07;;;;;;;6.47;100.00;101398.19;4992302;28;20680;-56
2023/10/17 04:11:08;;;;;;;10.98;5.43;;;;;;;6.55;100.00;101403.19;5004575;28;20488;-59
2023/10/17 04:14:33;;;;;;;9.93;5.50;;;;;;;6.50;100.00;101411.19;5001826;28;20092;-55
2023/10/17 04:17:02;;;;;;;10.23;5.93;;;;;;;6.46;100.00;101400.84;4984538;28;20504;-57
2023/10/17 04:19:31;;;;;;;8.23;5.10;;;;;;;6.50;100.00;101410.31;5001361;28;20077;-59
2023/10/17 04:22:49;;;;;;;10.32;5.85;;;;;;;6.50;100.00;101405.94;5004031;28;20077;-58
2023/10/17 04:25:55;;;;;;;6.88;5.38;;;;;;;6.52;100.00;101408.50;5000898;28;20725;-61
2023/10/17 04:32:09;;;;;;;9.50;4.78;;;;;;;6.55;100.00;101416.28;5002525;28;20116;-58
2023/10/17 04:34:48;;;;;;;14.85;5.80;;;;;;;6.53;100.00;101408.47;4998403;28;20127;-58
2023/10/17 04:37:44;;;;;;;10.25;4.38;;;;;;;6.54;100.00;101409.34;4998857;28;20445;-56
2023/10/17 04:40:50;;;;;;;10.00;5.40;;;;;;;6.54;100.00;101415.41;5000762;28;20080;-52
2023/10/17 04:44:03;;;;;;;11.63;5.95;;;;;;;6.56;100.00;101417.97;4979005;28;20081;-57
2023/10/17 04:56:11;;;;;;;11.02;6.07;;;;;;;6.62;100.00;101419.56;4989459;28;20080;-56
2023/10/17 05:02:48;;;;;;;9.93;6.60;;;;;;;6.67;100.00;101420.31;5002086;28;20053;-55
2023/10/17 05:05:39;;;;;;;10.43;6.15;;;;;;;6.66;100.00;101419.41;5003651;28;20042;-54
2023/10/17 05:08:18;;;;;;;11.10;5.95;;;;;;;6.68;100.00;101422.00;5001797;28;20054;-58
2023/10/17 06:19:03;;;;;;;9.20;4.90;;;;;;;7.40;100.00;101477.38;5024935;28;20458;-59
2023/10/17 06:24:06;;;;;;;8.77;4.60;;;;;;;7.47;100.00;101473.63;5031916;28;20522;-61
2023/10/17 06:31:34;;;;;;;11.23;4.55;;;;;;;7.63;100.00;101471.38;5030829;28;20048;-59
2023/10/17 06:35:03;;;;;;;9.15;4.50;;;;;;;7.69;100.00;101476.41;5035060;28;20060;-60
2023/10/17 06:40:45;;;;;;;9.15;4.55;;;;;;;7.71;100.00;101477.22;5023394;28;20120;-58
2023/10/17 06:43:46;;;;;;;9.77;4.97;;;;;;;7.77;100.00;101482.25;5027013;28;20041;-58
2023/10/17 06:55:47;;;;;;;8.23;4.47;;;;;;;7.99;100.00;101491.09;5030425;28;20033;-58
2023/10/17 06:59:53;;;;;;;10.30;4.80;;;;;;;8.13;100.00;101488.84;5027860;28;20807;-58
2023/10/17 07:03:13;;;;;;;10.57;4.60;;;;;;;8.09;100.00;101492.50;5029528;28;20044;-57
2023/10/17 07:09:30;;;;;;;11.88;4.65;;;;;;;8.33;100.00;101503.03;5031143;28;20549;-58
2023/10/17 07:12:25;;;;;;;8.82;3.88;;;;;;;8.40;100.00;101501.09;5027644;28;20052;-59
2023/10/17 07:28:02;;;;;;;8.65;4.15;;;;;;;8.54;98.87;101507.53;5027409;28;20060;-57
2023/10/17 07:31:49;;;;;;;6.38;3.55;;;;;;;8.65;100.00;101507.16;5026290;28;20176;-59
2023/10/17 07:34:43;;;;;;;9.23;3.92;;;;;;;8.80;99.29;101509.22;5024917;28;20175;-60
2023/10/17 07:50:54;;;;;;;10.18;4.22;;;;;;;9.34;95.69;101497.50;5024375;28;20041;-58
2023/10/17 07:54:16;;;;;;;12.77;4.25;;;;;;;9.30;93.80;101497.66;5024923;28;20057;-60
2023/10/17 07:57:17;;;;;;;12.90;4.55;;;;;;;9.45;94.29;101494.41;5016627;28;20056;-56
2023/10/17 07:59:51;;;;;;;8.32;3.03;;;;;;;9.49;92.78;101497.78;5029068;28;20077;-59
2023/10/17 08:03:19;;;;;;;9.27;2.92;;;;;;;9.49;90.71;101495.16;5023184;28;20084;-59
2023/10/17 08:07:03;;;;;;;10.43;3.22;;;;;;;9.76;90.88;101495.78;5027614;28;20433;-61
2023/10/17 08:10:48;;;;;;;17.35;3.97;;;;;;;9.95;89.23;101502.03;5025172;28;20040;-61
2023/10/17 08:15:18;;;;;;;9.38;3.33;;;;;;;10.05;86.80;101503.34;5019223;28;20139;-58
2023/10/17 08:18:40;;;;;;;12.65;3.70;;;;;;;10.29;85.23;101516.38;5031149;28;20142;-56
2023/10/17 08:24:51;;;;;;;9.88;3.05;;;;;;;10.24;85.54;101506.06;4996540;28;20050;-61
2023/10/17 08:28:31;;;;;;;6.88;3.67;;;;;;;10.27;83.11;101505.06;5025446;28;20446;-60
2023/10/17 08:32:29;;;;;;;8.43;2.67;;;;;;;10.51;83.47;101506.63;5023877;28;21288;-56
2023/10/17 08:35:51;;;;;;;12.07;3.13;;;;;;;10.68;82.26;101505.03;5022598;28;20119;-61
2023/10/17 08:38:39;;;;;;;9.68;2.70;;;;;;;10.86;82.29;101509.44;5020890;28;20455;-58
2023/10/17 08:45:58;;;;;;;6.72;2.38;;;;;;;10.75;77.24;101504.66;5025061;28;20068;-60
2023/10/17 08:48:44;;;;;;;8.43;2.60;;;;;;;10.92;78.17;101505.66;5028330;28;20530;-56
2023/10/17 09:07:47;;;;;;;4.20;1.88;;;;;;;12.35;65.73;101508.31;5029284;28;20060;-61
2023/10/17 09:10:37;;;;;;;5.72;2.47;;;;;;;12.76;63.24;101503.47;5025458;28;20215;-61
2023/10/17 09:14:14;;;;;;;7.55;1.15;;;;;;;13.12;61.96;101502.38;5032211;28;20162;-60
2023/10/17 09:17:30;;;;;;;7.35;1.65;;;;;;;13.70;60.37;101499.13;5030503;28;20121;-60
2023/10/17 09:20:50;;;;;;;4.53;1.20;;;;;;;14.00;54.80;101506.19;5029001;28;20495;-61
2023/10/17 09:24:05;;;;;;;4.22;1.60;;;;;;;14.00;54.54;101504.38;5028477;28;20095;-59
2023/10/17 09:27:21;;;;;;;4.13;1.08;;;;;;;13.46;53.53;101495.22;5031092;28;20044;-59
2023/10/17 09:30:37;;;;;;;7.07;1.92;;;;;;;13.36;55.30;101506.31;5023267;28;20052;-61
2023/10/17 09:34:04;;;;;;;1.93;1.00;;;;;;;13.06;50.06;101503.59;5030398;28;20052;-61
2023/10/17 09:37:21;;;;;;;3.58;1.30;;;;;;;12.90;51.27;101497.41;5031812;28;20463;-60
2023/10/17 09:40:38;;;;;;;1.80;0.90;;;;;;;12.90;50.75;101492.13;5029944;28;20136;-60
2023/10/17 09:43:53;;;;;;;1.65;1.15;;;;;;;13.03;48.19;101493.16;5022915;28;20099;-58
2023/10/17 09:47:10;;;;;;;2.30;1.20;;;;;;;12.84;48.37;101498.63;5027233;28;20150;-58
2023/10/17 09:50:28;;;;;;;4.80;1.00;;;;;;;13.09;49.21;101495.47;5027869;28;20210;-61
2023/10/17 09:53:31;;;;;;;2.97;1.00;;;;;;;13.41;49.14;101496.31;5027490;28;20123;-60
2023/10/17 10:03:46;;;;;;;7.03;1.50;;;;;;;12.61;48.88;101493.72;5023819;28;20525;-58
2023/10/17 10:14:33;;;;;;;7.22;1.80;;;;;;;12.22;48.53;101473.75;5025970;28;20705;-58
2023/10/17 10:17:51;;;;;;;2.58;1.05;;;;;;;11.91;48.10;101470.06;5037506;28;20079;-59
2023/10/17 10:21:33;;;;;;;3.83;1.17;;;;;;;11.84;48.97;101473.06;5026788;28;20131;-59
2023/10/17 10:26:06;;;;;;;3.15;0.82;;;;;;;11.77;49.28;101467.25;5024613;28;20106;-58
2023/10/17 10:29:22;;;;;;;2.70;0.90;;;;;;;11.33;48.90;101467.66;5028270;28;20132;-60
2023/10/17 11:08:46;;;;;;;4.28;1.17;;;;;;;12.49;51.30;101439.75;5028501;28;20041;-60
2023/10/17 11:11:16;;;;;;;4.78;0.90;;;;;;;12.38;50.18;101445.63;5029033;28;20069;-58
2023/10/17 11:13:45;;;;;;;2.65;0.90;;;;;;;12.22;49.12;101433.31;5032013;28;21472;-59
2023/10/17 11:17:03;;;;;;;3.05;1.20;;;;;;;11.88;49.71;101432.41;5027323;28;20049;-60
2023/10/17 11:19:57;;;;;;;2.70;1.00;;;;;;;11.88;49.76;101432.41;5028411;28;20084;-60
2023/10/17 11:22:57;;;;;;;3.15;1.35;;;;;;;11.94;50.30;101433.91;5026303;28;20056;-58
2023/10/17 11:26:17;;;;;;;2.95;0.93;;;;;;;11.51;49.76;101436.03;5028312;28;20073;-60
2023/10/17 11:29:35;;;;;;;1.55;0.70;;;;;;;11.38;50.94;101434.00;5025326;28;20055;-58
2023/10/17 12:09:40;;;;;;;2.92;1.15;;;;;;;12.29;52.47;101397.72;5019444;28;20463;-61
2023/10/17 12:13:04;;;;;;;5.45;1.40;;;;;;;12.31;53.39;101393.22;5024507;28;20041;-60
2023/10/17 12:16:25;;;;;;;4.13;1.30;;;;;;;11.97;52.43;101395.00;5028315;28;20438;-59
2023/10/17 12:19:41;;;;;;;2.30;0.93;;;;;;;12.03;53.41;101394.69;5023615;28;20076;-60
2023/10/17 12:22:59;;;;;;;6.40;1.55;;;;;;;12.15;52.89;101391.38;5026881;28;20060;-59
2023/10/17 12:26:19;;;;;;;5.35;1.40;;;;;;;12.22;52.57;101388.44;5024552;28;20064;-59
2023/10/17 12:29:31;;;;;;;3.47;1.52;;;;;;;12.38;52.36;101387.53;5027636;28;20041;-61
2023/10/17 12:32:47;;;;;;;3.47;1.40;;;;;;;12.28;51.90;101377.53;5030566;28;20048;-60
2023/10/17 12:36:05;;;;;;;5.57;1.38;;;;;;;12.04;52.16;101391.13;5027157;28;20501;-60
2023/10/17 12:39:17;;;;;;;5.50;1.30;;;;;;;11.99;52.77;101387.88;5038527;28;20053;-59
2023/10/17 12:42:32;;;;;;;2.53;1.00;;;;;;;12.07;52.65;101384.84;5032181;28;20443;-60
2023/10/17 12:45:49;;;;;;;4.95;1.45;;;;;;;12.08;52.69;101382.09;5032476;28;20120;-61
2023/10/17 12:49:06;;;;;;;4.93;1.10;;;;;;;12.06;52.86;101385.75;5028493;28;20045;-58
2023/10/17 12:51:53;;;;;;;4.00;1.15;;;;;;;12.03;52.59;101385.94;5029084;28;20056;-59
2023/10/17 12:54:39;;;;;;;1.85;0.93;;;;;;;12.06;52.71;101377.84;5033592;28;20069;-59
2023/10/17 12:57:38;;;;;;;4.32;1.30;;;;;;;11.75;52.49;101368.00;5026643;28;20048;-60
2023/10/17 13:00:53;;;;;;;2.97;1.00;;;;;;;11.83;53.05;101357.94;5031012;28;20430;-60
2023/10/17 13:04:09;;;;;;;4.47;1.00;;;;;;;12.04;52.91;101359.44;5031096;28;20930;-59
2023/10/17 13:07:25;;;;;;;6.38;1.13;;;;;;;11.95;52.53;101349.38;5029442;28;20096;-59
2023/10/17 13:11:06;;;;;;;6.32;1.58;;;;;;;12.04;52.07;101348.91;5029992;28;20091;-59
2023/10/17 13:14:05;;;;;;;7.45;1.13;;;;;;;12.24;52.23;101347.81;5026995;28;20063;-58
2023/10/17 13:17:00;;;;;;;3.40;0.90;;;;;;;11.91;51.63;101343.41;5028826;28;20418;-58
2023/10/17 13:25:50;;;;;;;3.35;1.67;;;;;;;12.02;51.08;101342.84;5031276;28;20656;-60
2023/10/17 13:29:07;;;;;;;4.25;1.35;;;;;;;11.88;50.35;101345.34;5026014;28;20346;-60
2023/10/17 13:32:00;;;;;;;2.88;1.00;;;;;;;11.85;50.08;101332.34;5026572;28;20069;-59
2023/10/17 13:34:53;;;;;;;3.38;1.42;;;;;;;11.86;50.52;101332.25;5026113;28;20514;-59
2023/10/17 13:37:51;;;;;;;5.15;1.38;;;;;;;11.51;51.50;101336.69;5024828;28;20057;-59
2023/10/17 13:40:21;;;;;;;3.83;1.00;;;;;;;11.61;51.53;101337.06;5027265;28;20049;-57
2023/10/17 13:42:55;;;;;;;4.45;1.00;;;;;;;11.52;51.18;101346.31;5026106;28;20041;-59
2023/10/17 13:45:23;;;;;;;3.13;1.20;;;;;;;11.43;51.94;101341.50;5027743;28;20519;-59
2023/10/17 13:48:18;;;;;;;5.22;1.50;;;;;;;11.31;51.82;101339.50;5029384;28;20104;-59
2023/10/17 13:50:49;;;;;;;2.65;1.10;;;;;;;11.46;52.21;101346.63;5032664;28;20058;-60
2023/10/17 13:53:45;;;;;;;4.22;1.17;;;;;;;11.51;51.58;101341.13;5028100;28;20567;-61
2023/10/17 13:56:21;;;;;;;4.53;1.13;;;;;;;11.63;52.07;101336.06;5029314;28;20111;-62
2023/10/17 13:58:56;;;;;;;5.47;1.00;;;;;;;11.85;52.39;101337.63;5027619;28;20132;-61
2023/10/17 14:01:31;;;;;;;3.25;1.48;;;;;;;12.10;52.06;101338.00;5027835;28;20073;-61
2023/10/17 14:03:59;;;;;;;;;;;;;;;13.32;50.45;101334.69;5029777;28;20314;-60
2023/10/17 14:06:27;;;;;;;2.80;0.93;;;;;;;14.38;47.72;101343.16;5029409;28;19921;-60
2023/10/17 14:08:55;;;;;;;3.90;1.10;;;;;;;16.01;45.21;101330.53;5031756;28;20077;-60
2023/10/17 14:11:23;;;;;;;9.02;1.13;;;;;;;16.24;42.78;101328.06;5031367;28;20072;-58
2023/10/17 14:13:51;;;;;;;3.67;1.10;;;;;;;15.72;43.75;101331.75;5030655;28;20407;-59
2023/10/17 14:16:22;;;;;;;4.05;1.15;;;;;;;15.09;44.68;101328.00;5033662;28;20041;-60
2023/10/17 14:19:04;;;;;;;3.97;1.30;;;;;;;14.49;45.46;101329.25;5030211;28;20090;-57
2023/10/17 14:22:38;;;;;;;3.88;0.73;;;;;;;13.87;46.82;101316.34;5031272;28;20052;-60
2023/10/17 14:29:03;;;;;;;2.15;1.05;;;;;;;13.11;48.94;101315.63;5029252;28;20384;-60
2023/10/17 14:31:51;;;;;;;4.63;1.30;;;;;;;12.54;48.83;101315.38;5029041;28;20054;-59
2023/10/17 14:34:39;;;;;;;2.80;1.00;;;;;;;12.43;49.66;101313.34;5026066;28;20091;-60
2023/10/17 14:37:07;;;;;;;5.32;1.20;;;;;;;12.22;49.29;101319.81;5028392;28;20139;-61
2023/10/17 14:39:36;;;;;;;1.92;0.95;;;;;;;12.05;49.66;101316.28;5043281;28;20095;-58
2023/10/17 14:42:04;;;;;;;3.35;0.98;;;;;;;12.00;50.10;101313.03;5031678;28;20046;-58
2023/10/17 14:44:56;;;;;;;3.78;1.63;;;;;;;12.02;50.95;101305.91;5028069;28;20088;-59
2023/10/17 14:47:24;;;;;;;4.50;0.90;;;;;;;12.06;50.98;101311.84;5028184;28;20073;-57
2023/10/17 14:49:51;;;;;;;2.33;0.90;;;;;;;12.05;52.78;101302.25;5031920;28;20057;-57
2023/10/17 14:52:19;;;;;;;4.05;1.10;;;;;;;12.08;51.82;101310.84;5032219;28;20045;-60
2023/10/17 14:54:50;;;;;;;2.72;1.30;;;;;;;12.25;52.15;101303.78;5027123;28;20045;-61
2023/10/17 14:57:17;;;;;;;3.00;1.23;;;;;;;12.66;51.48;101309.41;5024320;28;20057;-59
2023/10/17 15:00:37;;;;;;;4.63;1.15;;;;;;;14.77;47.32;101303.59;5027832;28;20407;-59
2023/10/17 15:03:30;;;;;;;2.22;1.00;;;;;;;14.72;46.14;101305.72;5026630;28;20111;-60
2023/10/17 15:13:49;;;;;;;4.50;1.08;;;;;;;13.97;47.59;101313.97;5026101;28;20181;-60
2023/10/17 15:17:13;;;;;;;2.83;0.93;;;;;;;13.78;47.25;101310.75;5027546;28;20163;-60
2023/10/17 15:21:08;;;;;;;4.10;1.17;;;;;;;13.14;47.53;101305.72;5025824;28;20040;-60
2023/10/17 15:24:25;;;;;;;4.65;0.77;;;;;;;12.74;48.67;101307.16;5032084;28;20139;-60
2023/10/17 15:30:44;;;;;;;2.78;0.90;;;;;;;12.05;50.94;101308.38;5027109;28;20037;-59
2023/10/17 15:34:03;;;;;;;4.03;1.60;;;;;;;11.85;52.29;101313.88;5030210;28;20033;-59
2023/10/17 15:37:24;;;;;;;3.40;1.08;;;;;;;11.58;52.61;101306.44;5025683;28;20091;-61
2023/10/17 15:40:21;;;;;;;2.88;0.68;;;;;;;11.29;53.87;101307.09;5025135;28;20119;-56
2023/10/17 15:46:06;;;;;;;2.05;0.98;;;;;;;10.93;55.67;101304.53;5023864;28;20052;-59
2023/10/17 15:49:02;;;;;;;4.75;1.00;;;;;;;10.50;56.58;101309.25;5022623;28;20091;-58
2023/10/17 15:51:33;;;;;;;1.85;1.05;;;;;;;10.37;56.34;101311.59;5027579;28;20063;-59
2023/10/17 15:54:27;;;;;;;4.18;1.40;;;;;;;10.23;57.41;101311.38;5025968;28;20056;-59
2023/10/17 16:00:19;;;;;;;2.97;1.10;;;;;;;9.93;59.53;101308.34;5026691;28;20065;-58
2023/10/17 16:03:38;;;;;;;4.07;0.93;;;;;;;9.78;60.41;101307.28;5025812;28;20150;-58
2023/10/17 16:06:35;;;;;;;5.28;1.13;;;;;;;9.64;61.46;101306.13;5022491;28;20107;-61
2023/10/17 16:15:58;;;;;;;3.17;1.02;;;;;;;9.22;63.39;101297.44;5024222;28;20041;-59
2023/10/17 16:18:52;;;;;;;10.40;1.67;;;;;;;9.12;63.87;101289.97;5030675;28;20061;-58
2023/10/17 16:27:32;;;;;;;10.77;5.00;;;;;;;8.74;67.72;101280.22;5022634;28;20048;-60
2023/10/17 16:30:00;;;;;;;10.65;4.80;;;;;;;8.63;68.70;101272.75;5008043;28;20136;-58
2023/10/17 16:32:28;;;;;;;13.63;5.40;;;;;;;8.53;69.28;101272.28;5025060;28;20822;-59
2023/10/17 16:34:55;;;;;;;11.77;5.55;;;;;;;8.45;70.60;101278.75;5023905;28;20076;-58
2023/10/17 16:37:31;;;;;;;13.05;5.20;;;;;;;8.35;72.12;101278.22;5028244;28;20678;-59
2023/10/17 16:40:00;;;;;;;9.80;4.82;;;;;;;8.25;72.26;101279.50;5020331;28;20091;-59
2023/10/17 16:42:32;;;;;;;11.13;5.32;;;;;;;8.19;73.31;101283.19;5025447;28;20440;-60
2023/10/17 16:44:59;;;;;;;11.40;4.15;;;;;;;8.11;74.53;101286.13;5024894;28;20152;-61
2023/10/17 16:47:27;;;;;;;10.60;4.28;;;;;;;8.03;75.08;101292.56;5002536;28;20046;-61
2023/10/17 16:49:57;;;;;;;31.30;16.00;;;;;;;7.94;75.96;101296.38;5025154;28;20049;-60
2023/10/17 16:52:26;;;;;;;47.63;22.80;;;;;;;7.90;75.75;101304.44;5026733;28;20586;-60
2023/10/17 16:54:53;;;;;;;110.63;54.88;;;;;;;7.87;75.79;101302.75;5027907;28;20084;-58
2023/10/17 16:57:20;;;;;;;288.20;149.05;;;;;;;7.81;77.25;101303.00;5027742;28;20487;-60
2023/10/17 16:59:48;;;;;;;212.50;112.75;;;;;;;7.75;77.81;101303.22;5024986;28;20057;-61
2023/10/17 17:02:35;;;;;;;130.25;64.80;;;;;;;7.73;78.10;101299.78;5025584;28;20038;-59
2023/10/17 17:05:03;;;;;;;68.15;36.60;;;;;;;7.68;78.90;101299.09;5025715;28;20053;-59
2023/10/17 17:07:31;;;;;;;42.50;21.55;;;;;;;7.65;78.98;101293.97;5026401;28;20045;-61
2023/10/17 17:10:00;;;;;;;25.65;12.25;;;;;;;7.58;80.40;101295.97;5024552;28;20601;-59
2023/10/17 17:12:28;;;;;;;22.88;8.65;;;;;;;7.50;81.07;101298.84;5032597;28;20135;-59
2023/10/17 17:14:55;;;;;;;12.75;5.78;;;;;;;7.42;81.18;101300.88;5027946;28;20585;-61
2023/10/17 17:17:22;;;;;;;15.07;7.15;;;;;;;7.34;81.31;101302.94;5029180;28;20045;-60
2023/10/17 17:19:51;;;;;;;12.05;5.53;;;;;;;7.31;81.31;101309.13;5030827;28;20132;-60
2023/10/17 17:22:18;;;;;;;15.27;5.63;;;;;;;7.25;81.62;101311.06;5029127;28;20041;-60
2023/10/17 17:24:48;;;;;;;10.30;4.90;;;;;;;7.19;82.54;101308.69;5031687;28;20050;-57
2023/10/17 17:27:15;;;;;;;10.98;4.22;;;;;;;7.13;83.72;101304.50;5033888;28;20368;-59
2023/10/17 17:29:46;;;;;;;8.82;4.28;;;;;;;7.07;83.55;101310.81;5026482;28;20049;-58
2023/10/17 17:32:13;;;;;;;11.63;4.78;;;;;;;7.02;84.28;101309.25;5032556;28;20480;-60
2023/10/17 17:34:40;;;;;;;10.45;5.03;;;;;;;6.97;84.66;101314.63;5030127;28;20073;-59
2023/10/17 17:37:08;;;;;;;12.75;4.63;;;;;;;6.93;84.92;101307.78;5027454;28;20050;-59
2023/10/17 17:39:35;;;;;;;9.15;4.60;;;;;;;6.87;84.65;101301.91;5029752;28;20143;-57
2023/10/17 17:42:03;;;;;;;9.40;4.25;;;;;;;6.84;85.62;101301.13;5025371;28;20607;-60
2023/10/17 17:44:30;;;;;;;13.38;5.22;;;;;;;6.80;85.56;101302.13;5026724;28;20072;-59
2023/10/17 17:46:58;;;;;;;10.27;4.43;;;;;;;6.75;86.61;101301.38;5029719;28;20049;-59
2023/10/17 17:49:27;;;;;;;8.25;4.22;;;;;;;6.72;87.11;101308.50;5032342;28;20049;-61
2023/10/17 17:51:55;;;;;;;9.38;5.53;;;;;;;6.66;87.84;101317.38;5007506;28;20081;-59
2023/10/17 17:54:22;;;;;;;13.15;4.32;;;;;;;6.63;87.91;101316.63;5031216;28;20053;-65
2023/10/17 17:56:49;;;;;;;9.60;4.38;;;;;;;6.59;88.61;101324.56;5029315;28;20090;-60
2023/10/17 17:59:17;;;;;;;6.22;3.45;;;;;;;6.58;89.20;101322.00;5030486;28;20173;-59
2023/10/17 18:01:44;;;;;;;9.68;3.83;;;;;;;6.57;89.13;101322.91;5029271;28;20060;-59
2023/10/17 18:05:01;;;;;;;7.60;3.40;;;;;;;6.56;89.79;101310.72;5025402;28;20688;-58
2023/10/17 18:07:28;;;;;;;11.25;3.78;;;;;;;6.51;90.08;101308.25;5024598;28;20057;-57
2023/10/17 18:09:56;;;;;;;10.07;3.75;;;;;;;6.49;89.85;101312.69;5027698;28;20045;-58
2023/10/17 18:13:13;;;;;;;9.93;4.22;;;;;;;6.48;89.95;101307.47;5027881;28;20116;-57
2023/10/17 18:16:16;;;;;;;8.73;3.78;;;;;;;6.42;90.77;101311.16;5026766;28;20033;-58
2023/10/17 18:18:44;;;;;;;8.13;3.13;;;;;;;6.40;91.00;101317.34;5024734;28;20820;-61
2023/10/17 18:21:37;;;;;;;7.50;4.20;;;;;;;6.36;91.67;101321.81;5027116;28;20615;-59
2023/10/17 18:24:06;;;;;;;7.00;3.80;;;;;;;6.33;91.25;101325.38;5023434;28;20045;-59
2023/10/17 18:26:35;;;;;;;7.60;4.40;;;;;;;6.32;91.91;101323.66;5027399;28;20068;-59
2023/10/17 18:36:27;;;;;;;6.85;3.92;;;;;;;6.38;91.93;101308.69;5032230;28;20469;-59
2023/10/17 18:39:45;;;;;;;11.15;5.50;;;;;;;6.39;91.55;101310.38;5027154;28;20077;-60
2023/10/17 18:43:28;;;;;;;12.70;5.60;;;;;;;6.34;92.30;101300.06;5025628;28;20057;-64
2023/10/17 18:47:10;;;;;;;9.50;5.00;;;;;;;6.26;92.99;101296.81;5031663;28;20222;-60
2023/10/17 19:00:22;;;;;;;10.77;6.20;;;;;;;6.11;93.89;101281.63;5029227;28;20044;-58
2023/10/17 19:03:28;;;;;;;14.75;6.47;;;;;;;6.09;94.42;101276.44;5022845;28;20133;-61